Terminal Aerodrome Forecast
Issued by NWS Austin/San Antonio, TX

Current Version | Previous Version | Text Only | Print | Product List | Glossary On
Versions: 1 2 3 4 5 6 7 8 9 10 11 12 13 14 15 16 17 18 19 20 21 22 23 24
000
FTUS44 KEWX 171100
TAFSAT
TAF
KSAT 171121Z 1712/1818 10005KT P6SM -SHRA BKN007 OVC015
     FM171400 15005KT P6SM VCSH BKN020 BKN040
     FM171800 16010KT P6SM VCTS BKN040CB
      TEMPO 1720/1724 2SM TSRA OVC025CB
     FM180000 18010KT P6SM VCTS BKN020CB OVC040
     FM180500 17005KT P6SM VCSH BKN020=

USA.gov is the U.S. government's official web portal to all federal, state and local government web resources and services.